sensor_id;sensor_type;location;lat;lon;timestamp;temperature;humidity
12893;DHT22;6514;48.606;9.222;2022-12-29T00:00:03;6.50;99.90
12893;DHT22;6514;48.606;9.222;2022-12-29T00:02:31;6.50;99.90
12893;DHT22;6514;48.606;9.222;2022-12-29T00:04:57;6.60;99.90
12893;DHT22;6514;48.606;9.222;2022-12-29T00:07:24;6.50;99.90
12893;DHT22;6514;48.606;9.222;2022-12-29T00:09:51;6.50;99.90
12893;DHT22;6514;48.606;9.222;2022-12-29T00:12:18;6.50;99.90
12893;DHT22;6514;48.606;9.222;2022-12-29T00:14:46;6.60;99.90
12893;DHT22;6514;48.606;9.222;2022-12-29T00:17:31;6.70;99.90
12893;DHT22;6514;48.606;9.222;2022-12-29T00:19:57;6.70;99.90
12893;DHT22;6514;48.606;9.222;2022-12-29T00:22:47;6.80;99.90
12893;DHT22;6514;48.606;9.222;2022-12-29T00:25:31;6.90;99.90
12893;DHT22;6514;48.606;9.222;2022-12-29T00:28:16;6.90;99.90
12893;DHT22;6514;48.606;9.222;2022-12-29T00:31:01;6.90;99.90
12893;DHT22;6514;48.606;9.222;2022-12-29T00:33:57;6.90;99.90
12893;DHT22;6514;48.606;9.222;2022-12-29T00:36:42;6.90;99.90
12893;DHT22;6514;48.606;9.222;2022-12-29T00:39:12;6.80;99.90
12893;DHT22;6514;48.606;9.222;2022-12-29T00:42:03;6.70;99.90
12893;DHT22;6514;48.606;9.222;2022-12-29T00:44:47;6.60;99.90
12893;DHT22;6514;48.606;9.222;2022-12-29T00:47:15;6.60;99.90
12893;DHT22;6514;48.606;9.222;2022-12-29T00:49:42;6.50;99.90
12893;DHT22;6514;48.606;9.222;2022-12-29T00:52:10;6.50;99.90
12893;DHT22;6514;48.606;9.222;2022-12-29T00:54:38;6.50;99.90
12893;DHT22;6514;48.606;9.222;2022-12-29T00:57:07;6.40;99.90
12893;DHT22;6514;48.606;9.222;2022-12-29T00:59:34;6.40;99.90
12893;DHT22;6514;48.606;9.222;2022-12-29T01:02:02;6.40;99.90
12893;DHT22;6514;48.606;9.222;2022-12-29T01:04:30;6.40;99.90
12893;DHT22;6514;48.606;9.222;2022-12-29T01:06:57;6.40;99.90
12893;DHT22;6514;48.606;9.222;2022-12-29T01:09:24;6.40;99.90
12893;DHT22;6514;48.606;9.222;2022-12-29T01:12:09;6.40;99.90
12893;DHT22;6514;48.606;9.222;2022-12-29T01:14:36;6.50;99.90
12893;DHT22;6514;48.606;9.222;2022-12-29T01:17:04;6.40;99.90
12893;DHT22;6514;48.606;9.222;2022-12-29T01:19:32;6.50;99.90
12893;DHT22;6514;48.606;9.222;2022-12-29T01:21:59;6.60;99.90
12893;DHT22;6514;48.606;9.222;2022-12-29T01:24:26;6.50;99.90
12893;DHT22;6514;48.606;9.222;2022-12-29T01:26:53;6.50;99.90
12893;DHT22;6514;48.606;9.222;2022-12-29T01:29:21;6.50;99.90
12893;DHT22;6514;48.606;9.222;2022-12-29T01:31:48;6.60;99.90
12893;DHT22;6514;48.606;9.222;2022-12-29T01:34:15;6.60;99.90
12893;DHT22;6514;48.606;9.222;2022-12-29T01:36:43;6.70;99.90
12893;DHT22;6514;48.606;9.222;2022-12-29T01:39:10;6.80;99.90
12893;DHT22;6514;48.606;9.222;2022-12-29T01:41:37;6.80;99.90
12893;DHT22;6514;48.606;9.222;2022-12-29T01:47:04;6.90;99.90
12893;DHT22;6514;48.606;9.222;2022-12-29T01:49:31;7.00;99.90
12893;DHT22;6514;48.606;9.222;2022-12-29T01:52:02;7.00;99.90
12893;DHT22;6514;48.606;9.222;2022-12-29T01:54:35;7.10;99.90
12893;DHT22;6514;48.606;9.222;2022-12-29T01:57:06;7.20;99.90
12893;DHT22;6514;48.606;9.222;2022-12-29T01:59:38;7.20;99.90
12893;DHT22;6514;48.606;9.222;2022-12-29T02:02:07;7.20;99.90
12893;DHT22;6514;48.606;9.222;2022-12-29T02:04:35;7.40;99.90
12893;DHT22;6514;48.606;9.222;2022-12-29T02:07:11;7.60;99.90
12893;DHT22;6514;48.606;9.222;2022-12-29T02:09:41;7.70;99.90
12893;DHT22;6514;48.606;9.222;2022-12-29T02:12:09;7.80;99.90
12893;DHT22;6514;48.606;9.222;2022-12-29T02:14:36;8.10;99.90
12893;DHT22;6514;48.606;9.222;2022-12-29T02:17:10;8.10;99.90
12893;DHT22;6514;48.606;9.222;2022-12-29T02:20:21;8.20;99.90
12893;DHT22;6514;48.606;9.222;2022-12-29T02:23:02;8.20;99.90
12893;DHT22;6514;48.606;9.222;2022-12-29T02:28:50;8.40;99.90
12893;DHT22;6514;48.606;9.222;2022-12-29T02:31:27;8.40;99.90
12893;DHT22;6514;48.606;9.222;2022-12-29T02:34:06;8.50;99.90
12893;DHT22;6514;48.606;9.222;2022-12-29T02:36:40;8.50;99.90
12893;DHT22;6514;48.606;9.222;2022-12-29T02:39:15;8.70;99.90
12893;DHT22;6514;48.606;9.222;2022-12-29T02:41:49;8.70;99.90
12893;DHT22;6514;48.606;9.222;2022-12-29T02:44:25;8.80;99.90
12893;DHT22;6514;48.606;9.222;2022-12-29T02:47:00;8.90;99.90
12893;DHT22;6514;48.606;9.222;2022-12-29T02:49:34;8.90;99.90
12893;DHT22;6514;48.606;9.222;2022-12-29T02:52:04;9.00;99.90
12893;DHT22;6514;48.606;9.222;2022-12-29T02:54:32;9.00;99.90
12893;DHT22;6514;48.606;9.222;2022-12-29T02:57:13;9.00;99.90
12893;DHT22;6514;48.606;9.222;2022-12-29T02:59:41;9.00;99.90
12893;DHT22;6514;48.606;9.222;2022-12-29T03:02:28;9.00;99.90
12893;DHT22;6514;48.606;9.222;2022-12-29T03:05:42;9.00;99.90
12893;DHT22;6514;48.606;9.222;2022-12-29T03:08:19;9.10;99.90
12893;DHT22;6514;48.606;9.222;2022-12-29T03:10:55;9.20;99.90
12893;DHT22;6514;48.606;9.222;2022-12-29T03:13:26;9.30;99.90
12893;DHT22;6514;48.606;9.222;2022-12-29T03:16:24;9.40;99.90
12893;DHT22;6514;48.606;9.222;2022-12-29T03:19:00;9.40;99.90
12893;DHT22;6514;48.606;9.222;2022-12-29T03:21:33;9.30;99.90
12893;DHT22;6514;48.606;9.222;2022-12-29T03:24:22;9.30;99.90
12893;DHT22;6514;48.606;9.222;2022-12-29T03:26:51;9.40;99.90
12893;DHT22;6514;48.606;9.222;2022-12-29T03:29:20;9.40;99.90
12893;DHT22;6514;48.606;9.222;2022-12-29T03:31:48;9.40;99.90
12893;DHT22;6514;48.606;9.222;2022-12-29T03:34:20;9.50;99.90
12893;DHT22;6514;48.606;9.222;2022-12-29T03:36:50;9.50;99.90
12893;DHT22;6514;48.606;9.222;2022-12-29T03:39:21;9.50;99.90
12893;DHT22;6514;48.606;9.222;2022-12-29T03:41:50;9.40;99.90
12893;DHT22;6514;48.606;9.222;2022-12-29T03:44:21;9.50;99.90
12893;DHT22;6514;48.606;9.222;2022-12-29T03:46:48;9.40;99.90
12893;DHT22;6514;48.606;9.222;2022-12-29T03:49:14;9.40;99.90
12893;DHT22;6514;48.606;9.222;2022-12-29T03:51:43;9.30;99.90
12893;DHT22;6514;48.606;9.222;2022-12-29T03:54:10;9.20;99.90
12893;DHT22;6514;48.606;9.222;2022-12-29T03:56:36;9.10;99.90
12893;DHT22;6514;48.606;9.222;2022-12-29T03:59:03;9.10;99.90
12893;DHT22;6514;48.606;9.222;2022-12-29T04:01:30;9.10;99.90
12893;DHT22;6514;48.606;9.222;2022-12-29T04:03:57;9.10;99.90
12893;DHT22;6514;48.606;9.222;2022-12-29T04:06:24;9.10;99.90
12893;DHT22;6514;48.606;9.222;2022-12-29T04:08:52;9.10;99.90
12893;DHT22;6514;48.606;9.222;2022-12-29T04:11:19;9.20;99.90
12893;DHT22;6514;48.606;9.222;2022-12-29T04:13:46;9.30;99.90
12893;DHT22;6514;48.606;9.222;2022-12-29T04:16:13;9.30;99.90
12893;DHT22;6514;48.606;9.222;2022-12-29T04:18:39;9.30;99.90
12893;DHT22;6514;48.606;9.222;2022-12-29T04:21:06;9.30;99.90
12893;DHT22;6514;48.606;9.222;2022-12-29T04:23:35;9.30;99.90
12893;DHT22;6514;48.606;9.222;2022-12-29T04:26:04;9.10;99.90
12893;DHT22;6514;48.606;9.222;2022-12-29T04:28:32;9.00;99.90
12893;DHT22;6514;48.606;9.222;2022-12-29T04:30:59;9.00;99.90
12893;DHT22;6514;48.606;9.222;2022-12-29T04:33:26;8.90;99.90
12893;DHT22;6514;48.606;9.222;2022-12-29T04:38:25;8.70;99.90
12893;DHT22;6514;48.606;9.222;2022-12-29T04:40:52;8.60;99.90
12893;DHT22;6514;48.606;9.222;2022-12-29T04:43:21;8.50;99.90
12893;DHT22;6514;48.606;9.222;2022-12-29T04:45:48;8.40;99.90
12893;DHT22;6514;48.606;9.222;2022-12-29T04:48:15;8.50;99.90
12893;DHT22;6514;48.606;9.222;2022-12-29T04:50:42;8.40;99.90
12893;DHT22;6514;48.606;9.222;2022-12-29T04:53:09;8.50;99.90
12893;DHT22;6514;48.606;9.222;2022-12-29T04:55:36;8.50;99.90
12893;DHT22;6514;48.606;9.222;2022-12-29T04:58:03;8.60;99.90
12893;DHT22;6514;48.606;9.222;2022-12-29T05:00:31;8.50;99.90
12893;DHT22;6514;48.606;9.222;2022-12-29T05:02:58;8.50;99.90
12893;DHT22;6514;48.606;9.222;2022-12-29T05:05:25;8.40;99.90
12893;DHT22;6514;48.606;9.222;2022-12-29T05:07:52;8.50;99.90
12893;DHT22;6514;48.606;9.222;2022-12-29T05:10:19;8.50;99.90
12893;DHT22;6514;48.606;9.222;2022-12-29T05:12:46;8.60;99.90
12893;DHT22;6514;48.606;9.222;2022-12-29T05:15:13;8.60;99.90
12893;DHT22;6514;48.606;9.222;2022-12-29T05:17:41;8.80;99.90
12893;DHT22;6514;48.606;9.222;2022-12-29T05:20:09;9.00;99.90
12893;DHT22;6514;48.606;9.222;2022-12-29T05:22:36;9.20;99.90
12893;DHT22;6514;48.606;9.222;2022-12-29T05:25:03;9.30;99.90
12893;DHT22;6514;48.606;9.222;2022-12-29T05:27:33;9.30;99.90
12893;DHT22;6514;48.606;9.222;2022-12-29T05:30:00;9.20;99.90
12893;DHT22;6514;48.606;9.222;2022-12-29T05:32:27;9.10;99.90
12893;DHT22;6514;48.606;9.222;2022-12-29T05:34:55;9.10;99.90
12893;DHT22;6514;48.606;9.222;2022-12-29T05:37:22;9.00;99.90
12893;DHT22;6514;48.606;9.222;2022-12-29T05:39:49;8.90;99.90
12893;DHT22;6514;48.606;9.222;2022-12-29T05:42:16;8.90;99.90
12893;DHT22;6514;48.606;9.222;2022-12-29T05:44:43;8.90;99.90
12893;DHT22;6514;48.606;9.222;2022-12-29T05:47:10;8.90;99.90
12893;DHT22;6514;48.606;9.222;2022-12-29T05:49:36;9.00;99.90
12893;DHT22;6514;48.606;9.222;2022-12-29T05:52:05;9.00;99.90
12893;DHT22;6514;48.606;9.222;2022-12-29T05:54:32;9.00;99.90
12893;DHT22;6514;48.606;9.222;2022-12-29T05:56:58;9.10;99.90
12893;DHT22;6514;48.606;9.222;2022-12-29T05:59:25;9.10;99.90
12893;DHT22;6514;48.606;9.222;2022-12-29T06:01:52;9.20;99.90
12893;DHT22;6514;48.606;9.222;2022-12-29T06:04:19;9.20;99.90
12893;DHT22;6514;48.606;9.222;2022-12-29T06:06:46;9.20;99.90
12893;DHT22;6514;48.606;9.222;2022-12-29T06:09:14;9.20;99.90
12893;DHT22;6514;48.606;9.222;2022-12-29T06:11:41;9.20;99.90
12893;DHT22;6514;48.606;9.222;2022-12-29T06:14:08;9.20;99.90
12893;DHT22;6514;48.606;9.222;2022-12-29T06:16:35;9.10;99.90
12893;DHT22;6514;48.606;9.222;2022-12-29T06:19:02;9.10;99.90
12893;DHT22;6514;48.606;9.222;2022-12-29T06:21:29;9.10;99.90
12893;DHT22;6514;48.606;9.222;2022-12-29T06:23:56;9.30;99.90
12893;DHT22;6514;48.606;9.222;2022-12-29T06:26:24;9.20;99.90
12893;DHT22;6514;48.606;9.222;2022-12-29T06:28:51;9.20;99.90
12893;DHT22;6514;48.606;9.222;2022-12-29T06:31:18;9.30;99.90
12893;DHT22;6514;48.606;9.222;2022-12-29T06:33:45;9.20;99.90
12893;DHT22;6514;48.606;9.222;2022-12-29T06:36:11;9.10;99.90
12893;DHT22;6514;48.606;9.222;2022-12-29T06:38:38;9.10;99.90
12893;DHT22;6514;48.606;9.222;2022-12-29T06:41:05;9.10;99.90
12893;DHT22;6514;48.606;9.222;2022-12-29T06:43:33;9.10;99.90
12893;DHT22;6514;48.606;9.222;2022-12-29T06:46:03;9.10;99.90
12893;DHT22;6514;48.606;9.222;2022-12-29T06:48:30;9.20;99.90
12893;DHT22;6514;48.606;9.222;2022-12-29T06:50:57;9.30;99.90
12893;DHT22;6514;48.606;9.222;2022-12-29T06:53:24;9.30;99.90
12893;DHT22;6514;48.606;9.222;2022-12-29T06:55:51;9.40;99.90
12893;DHT22;6514;48.606;9.222;2022-12-29T06:58:18;9.30;99.90
12893;DHT22;6514;48.606;9.222;2022-12-29T07:00:46;9.30;99.90
12893;DHT22;6514;48.606;9.222;2022-12-29T07:03:13;9.30;99.90
12893;DHT22;6514;48.606;9.222;2022-12-29T07:05:40;9.20;99.90
12893;DHT22;6514;48.606;9.222;2022-12-29T07:08:06;9.20;99.90
12893;DHT22;6514;48.606;9.222;2022-12-29T07:10:34;9.30;99.90
12893;DHT22;6514;48.606;9.222;2022-12-29T07:13:00;9.30;99.90
12893;DHT22;6514;48.606;9.222;2022-12-29T07:15:27;9.40;99.90
12893;DHT22;6514;48.606;9.222;2022-12-29T07:17:56;9.50;99.90
12893;DHT22;6514;48.606;9.222;2022-12-29T07:20:22;9.60;99.90
12893;DHT22;6514;48.606;9.222;2022-12-29T07:22:49;9.70;99.90
12893;DHT22;6514;48.606;9.222;2022-12-29T07:25:16;9.80;99.90
12893;DHT22;6514;48.606;9.222;2022-12-29T07:27:43;9.70;99.90
12893;DHT22;6514;48.606;9.222;2022-12-29T07:30:11;9.80;99.90
12893;DHT22;6514;48.606;9.222;2022-12-29T07:32:38;9.70;99.90
12893;DHT22;6514;48.606;9.222;2022-12-29T07:35:07;9.70;99.90
12893;DHT22;6514;48.606;9.222;2022-12-29T07:37:34;9.70;99.90
12893;DHT22;6514;48.606;9.222;2022-12-29T07:40:01;9.70;99.90
12893;DHT22;6514;48.606;9.222;2022-12-29T07:42:28;9.70;99.90
12893;DHT22;6514;48.606;9.222;2022-12-29T07:44:55;9.70;99.90
12893;DHT22;6514;48.606;9.222;2022-12-29T07:47:22;9.70;99.90
12893;DHT22;6514;48.606;9.222;2022-12-29T07:49:50;9.70;99.90
12893;DHT22;6514;48.606;9.222;2022-12-29T07:52:18;9.80;99.90
12893;DHT22;6514;48.606;9.222;2022-12-29T07:54:45;9.80;99.90
12893;DHT22;6514;48.606;9.222;2022-12-29T07:57:12;9.70;99.90
12893;DHT22;6514;48.606;9.222;2022-12-29T07:59:39;9.70;99.90
12893;DHT22;6514;48.606;9.222;2022-12-29T08:02:08;9.70;99.90
12893;DHT22;6514;48.606;9.222;2022-12-29T08:04:35;9.70;99.90
12893;DHT22;6514;48.606;9.222;2022-12-29T08:07:02;9.80;99.90
12893;DHT22;6514;48.606;9.222;2022-12-29T08:09:31;9.80;99.90
12893;DHT22;6514;48.606;9.222;2022-12-29T08:11:57;9.90;99.90
12893;DHT22;6514;48.606;9.222;2022-12-29T08:14:24;10.00;99.90
12893;DHT22;6514;48.606;9.222;2022-12-29T08:16:51;10.00;99.90
12893;DHT22;6514;48.606;9.222;2022-12-29T08:19:18;10.20;99.90
12893;DHT22;6514;48.606;9.222;2022-12-29T08:21:45;10.30;99.90
12893;DHT22;6514;48.606;9.222;2022-12-29T08:24:12;10.30;99.90
12893;DHT22;6514;48.606;9.222;2022-12-29T08:26:40;10.30;99.90
12893;DHT22;6514;48.606;9.222;2022-12-29T08:29:07;10.40;99.90
12893;DHT22;6514;48.606;9.222;2022-12-29T08:31:34;10.40;99.90
12893;DHT22;6514;48.606;9.222;2022-12-29T08:34:01;10.50;99.90
12893;DHT22;6514;48.606;9.222;2022-12-29T08:36:28;10.50;99.90
12893;DHT22;6514;48.606;9.222;2022-12-29T08:38:55;10.60;99.90
12893;DHT22;6514;48.606;9.222;2022-12-29T08:41:22;10.60;99.90
12893;DHT22;6514;48.606;9.222;2022-12-29T08:43:51;10.60;99.90
12893;DHT22;6514;48.606;9.222;2022-12-29T08:46:17;10.80;99.90
12893;DHT22;6514;48.606;9.222;2022-12-29T08:48:45;10.90;99.90
12893;DHT22;6514;48.606;9.222;2022-12-29T08:51:11;10.90;99.90
12893;DHT22;6514;48.606;9.222;2022-12-29T08:53:38;11.00;99.90
12893;DHT22;6514;48.606;9.222;2022-12-29T08:56:08;11.00;99.90
12893;DHT22;6514;48.606;9.222;2022-12-29T08:58:35;11.10;99.90
12893;DHT22;6514;48.606;9.222;2022-12-29T09:01:04;11.10;99.90
12893;DHT22;6514;48.606;9.222;2022-12-29T09:03:31;11.00;99.90
12893;DHT22;6514;48.606;9.222;2022-12-29T09:05:58;11.10;99.90
12893;DHT22;6514;48.606;9.222;2022-12-29T09:08:24;11.10;99.90
12893;DHT22;6514;48.606;9.222;2022-12-29T09:10:51;11.10;99.90
12893;DHT22;6514;48.606;9.222;2022-12-29T09:13:19;11.10;99.90
12893;DHT22;6514;48.606;9.222;2022-12-29T09:15:46;11.10;99.90
12893;DHT22;6514;48.606;9.222;2022-12-29T09:18:14;11.20;99.90
12893;DHT22;6514;48.606;9.222;2022-12-29T09:20:41;11.30;99.90
12893;DHT22;6514;48.606;9.222;2022-12-29T09:23:08;11.30;99.90
12893;DHT22;6514;48.606;9.222;2022-12-29T09:25:35;11.40;99.90
12893;DHT22;6514;48.606;9.222;2022-12-29T09:28:01;11.40;99.90
12893;DHT22;6514;48.606;9.222;2022-12-29T09:30:33;11.40;99.90
12893;DHT22;6514;48.606;9.222;2022-12-29T09:33:00;11.40;99.90
12893;DHT22;6514;48.606;9.222;2022-12-29T09:35:28;11.40;99.90
12893;DHT22;6514;48.606;9.222;2022-12-29T09:37:55;11.50;99.90
12893;DHT22;6514;48.606;9.222;2022-12-29T09:40:28;11.40;99.90
12893;DHT22;6514;48.606;9.222;2022-12-29T09:43:09;11.40;99.90
12893;DHT22;6514;48.606;9.222;2022-12-29T09:45:42;11.40;99.90
12893;DHT22;6514;48.606;9.222;2022-12-29T09:48:16;11.40;99.90
12893;DHT22;6514;48.606;9.222;2022-12-29T09:50:48;11.50;99.90
12893;DHT22;6514;48.606;9.222;2022-12-29T09:53:22;11.50;99.90
12893;DHT22;6514;48.606;9.222;2022-12-29T09:55:58;11.50;99.90
12893;DHT22;6514;48.606;9.222;2022-12-29T09:58:30;11.60;99.90
12893;DHT22;6514;48.606;9.222;2022-12-29T10:01:02;11.70;99.90
12893;DHT22;6514;48.606;9.222;2022-12-29T10:03:40;11.70;99.90
12893;DHT22;6514;48.606;9.222;2022-12-29T10:06:13;11.70;99.90
12893;DHT22;6514;48.606;9.222;2022-12-29T10:08:46;11.60;99.90
12893;DHT22;6514;48.606;9.222;2022-12-29T10:11:26;11.60;99.90
12893;DHT22;6514;48.606;9.222;2022-12-29T10:14:10;11.60;99.90
12893;DHT22;6514;48.606;9.222;2022-12-29T10:16:43;11.60;99.90
12893;DHT22;6514;48.606;9.222;2022-12-29T10:19:34;11.60;99.90
12893;DHT22;6514;48.606;9.222;2022-12-29T10:22:15;11.60;99.90
12893;DHT22;6514;48.606;9.222;2022-12-29T10:24:48;11.50;99.90
12893;DHT22;6514;48.606;9.222;2022-12-29T10:27:18;11.50;99.90
12893;DHT22;6514;48.606;9.222;2022-12-29T10:29:48;11.50;99.90
12893;DHT22;6514;48.606;9.222;2022-12-29T10:32:23;11.50;99.90
12893;DHT22;6514;48.606;9.222;2022-12-29T10:34:55;11.50;99.90
12893;DHT22;6514;48.606;9.222;2022-12-29T10:37:31;11.50;99.90
12893;DHT22;6514;48.606;9.222;2022-12-29T10:40:09;11.60;99.90
12893;DHT22;6514;48.606;9.222;2022-12-29T10:42:41;11.60;99.90
12893;DHT22;6514;48.606;9.222;2022-12-29T10:45:12;11.50;99.90
12893;DHT22;6514;48.606;9.222;2022-12-29T10:47:49;11.50;99.90
12893;DHT22;6514;48.606;9.222;2022-12-29T10:50:17;11.50;99.90
12893;DHT22;6514;48.606;9.222;2022-12-29T10:52:46;11.60;99.90
12893;DHT22;6514;48.606;9.222;2022-12-29T10:55:18;11.60;99.90
12893;DHT22;6514;48.606;9.222;2022-12-29T10:57:46;11.60;99.90
12893;DHT22;6514;48.606;9.222;2022-12-29T11:00:16;11.70;99.90
12893;DHT22;6514;48.606;9.222;2022-12-29T11:05:45;11.60;99.90
12893;DHT22;6514;48.606;9.222;2022-12-29T11:08:17;11.60;99.90
12893;DHT22;6514;48.606;9.222;2022-12-29T11:10:46;11.70;99.90
12893;DHT22;6514;48.606;9.222;2022-12-29T11:13:25;11.70;99.90
12893;DHT22;6514;48.606;9.222;2022-12-29T11:15:52;11.80;99.90
12893;DHT22;6514;48.606;9.222;2022-12-29T11:18:21;11.80;99.90
12893;DHT22;6514;48.606;9.222;2022-12-29T11:20:50;11.90;99.90
12893;DHT22;6514;48.606;9.222;2022-12-29T11:23:25;11.90;99.90
12893;DHT22;6514;48.606;9.222;2022-12-29T11:26:22;11.90;99.90
12893;DHT22;6514;48.606;9.222;2022-12-29T11:29:11;11.90;99.90
12893;DHT22;6514;48.606;9.222;2022-12-29T11:31:44;11.90;99.90
12893;DHT22;6514;48.606;9.222;2022-12-29T11:34:18;11.90;99.90
12893;DHT22;6514;48.606;9.222;2022-12-29T11:36:46;11.80;99.90
12893;DHT22;6514;48.606;9.222;2022-12-29T11:39:29;11.70;99.90
12893;DHT22;6514;48.606;9.222;2022-12-29T11:41:57;11.60;99.90
12893;DHT22;6514;48.606;9.222;2022-12-29T11:44:25;11.50;99.90
12893;DHT22;6514;48.606;9.222;2022-12-29T11:46:53;11.50;99.90
12893;DHT22;6514;48.606;9.222;2022-12-29T11:49:22;11.40;99.90
12893;DHT22;6514;48.606;9.222;2022-12-29T11:51:51;11.50;99.90
12893;DHT22;6514;48.606;9.222;2022-12-29T11:54:26;11.50;99.90
12893;DHT22;6514;48.606;9.222;2022-12-29T11:56:54;11.60;99.90
12893;DHT22;6514;48.606;9.222;2022-12-29T11:59:37;11.70;99.90
12893;DHT22;6514;48.606;9.222;2022-12-29T12:02:33;11.60;99.90
12893;DHT22;6514;48.606;9.222;2022-12-29T12:05:06;11.50;99.90
12893;DHT22;6514;48.606;9.222;2022-12-29T12:07:40;11.40;99.90
12893;DHT22;6514;48.606;9.222;2022-12-29T12:10:17;11.30;99.90
12893;DHT22;6514;48.606;9.222;2022-12-29T12:12:48;11.30;99.90
12893;DHT22;6514;48.606;9.222;2022-12-29T12:15:21;11.20;99.90
12893;DHT22;6514;48.606;9.222;2022-12-29T12:17:53;11.20;99.90
12893;DHT22;6514;48.606;9.222;2022-12-29T12:20:24;11.10;99.90
12893;DHT22;6514;48.606;9.222;2022-12-29T12:22:59;11.10;99.90
12893;DHT22;6514;48.606;9.222;2022-12-29T12:25:34;11.10;99.90
12893;DHT22;6514;48.606;9.222;2022-12-29T12:28:10;11.00;99.90
12893;DHT22;6514;48.606;9.222;2022-12-29T12:30:41;11.00;99.90
12893;DHT22;6514;48.606;9.222;2022-12-29T12:33:17;11.00;99.90
12893;DHT22;6514;48.606;9.222;2022-12-29T12:36:00;11.10;99.90
12893;DHT22;6514;48.606;9.222;2022-12-29T12:38:37;11.20;99.90
12893;DHT22;6514;48.606;9.222;2022-12-29T12:41:12;11.50;99.90
12893;DHT22;6514;48.606;9.222;2022-12-29T12:43:43;11.90;99.90
12893;DHT22;6514;48.606;9.222;2022-12-29T12:46:34;12.10;99.90
12893;DHT22;6514;48.606;9.222;2022-12-29T12:49:16;12.20;99.90
12893;DHT22;6514;48.606;9.222;2022-12-29T12:51:50;12.20;99.90
12893;DHT22;6514;48.606;9.222;2022-12-29T12:54:44;12.10;99.90
12893;DHT22;6514;48.606;9.222;2022-12-29T12:57:30;12.00;99.90
12893;DHT22;6514;48.606;9.222;2022-12-29T13:00:02;11.90;99.90
12893;DHT22;6514;48.606;9.222;2022-12-29T13:02:40;11.90;99.90
12893;DHT22;6514;48.606;9.222;2022-12-29T13:05:29;11.70;99.90
12893;DHT22;6514;48.606;9.222;2022-12-29T13:08:11;11.60;99.90
12893;DHT22;6514;48.606;9.222;2022-12-29T13:10:45;11.50;99.90
12893;DHT22;6514;48.606;9.222;2022-12-29T13:16:23;11.30;99.90
12893;DHT22;6514;48.606;9.222;2022-12-29T13:18:58;11.30;99.90
12893;DHT22;6514;48.606;9.222;2022-12-29T13:21:34;11.30;99.90
12893;DHT22;6514;48.606;9.222;2022-12-29T13:24:12;11.20;99.90
12893;DHT22;6514;48.606;9.222;2022-12-29T13:26:44;11.20;99.90
12893;DHT22;6514;48.606;9.222;2022-12-29T13:29:16;11.20;99.90
12893;DHT22;6514;48.606;9.222;2022-12-29T13:31:52;11.10;99.90
12893;DHT22;6514;48.606;9.222;2022-12-29T13:34:28;11.10;99.90
12893;DHT22;6514;48.606;9.222;2022-12-29T13:36:59;11.10;99.90
12893;DHT22;6514;48.606;9.222;2022-12-29T13:39:30;11.20;99.90
12893;DHT22;6514;48.606;9.222;2022-12-29T13:41:59;11.20;99.90
12893;DHT22;6514;48.606;9.222;2022-12-29T13:44:31;11.20;99.90
12893;DHT22;6514;48.606;9.222;2022-12-29T13:47:18;11.20;99.90
12893;DHT22;6514;48.606;9.222;2022-12-29T13:49:48;11.30;99.90
12893;DHT22;6514;48.606;9.222;2022-12-29T13:52:20;11.40;99.90
12893;DHT22;6514;48.606;9.222;2022-12-29T13:54:57;11.50;99.90
12893;DHT22;6514;48.606;9.222;2022-12-29T13:57:38;11.50;99.90
12893;DHT22;6514;48.606;9.222;2022-12-29T14:00:13;11.60;99.90
12893;DHT22;6514;48.606;9.222;2022-12-29T14:02:59;11.60;99.90
12893;DHT22;6514;48.606;9.222;2022-12-29T14:05:31;11.60;99.90
12893;DHT22;6514;48.606;9.222;2022-12-29T14:08:00;11.70;99.90
12893;DHT22;6514;48.606;9.222;2022-12-29T14:10:30;11.80;99.90
12893;DHT22;6514;48.606;9.222;2022-12-29T14:13:04;11.90;99.90
12893;DHT22;6514;48.606;9.222;2022-12-29T14:15:32;11.90;99.90
12893;DHT22;6514;48.606;9.222;2022-12-29T14:18:13;12.00;99.90
12893;DHT22;6514;48.606;9.222;2022-12-29T14:20:51;12.10;99.90
12893;DHT22;6514;48.606;9.222;2022-12-29T14:23:28;12.10;99.90
12893;DHT22;6514;48.606;9.222;2022-12-29T14:25:58;12.10;99.90
12893;DHT22;6514;48.606;9.222;2022-12-29T14:28:27;12.10;99.90
12893;DHT22;6514;48.606;9.222;2022-12-29T14:30:56;11.90;99.90
12893;DHT22;6514;48.606;9.222;2022-12-29T14:33:26;11.80;99.90
12893;DHT22;6514;48.606;9.222;2022-12-29T14:35:54;11.60;99.90
12893;DHT22;6514;48.606;9.222;2022-12-29T14:38:24;11.50;99.90
12893;DHT22;6514;48.606;9.222;2022-12-29T14:40:52;11.40;99.90
12893;DHT22;6514;48.606;9.222;2022-12-29T14:43:27;11.30;99.90
12893;DHT22;6514;48.606;9.222;2022-12-29T14:45:59;11.20;99.90
12893;DHT22;6514;48.606;9.222;2022-12-29T14:48:37;11.00;99.90
12893;DHT22;6514;48.606;9.222;2022-12-29T14:51:19;10.80;99.90
12893;DHT22;6514;48.606;9.222;2022-12-29T14:53:48;10.70;99.90
12893;DHT22;6514;48.606;9.222;2022-12-29T14:56:17;10.60;99.90
12893;DHT22;6514;48.606;9.222;2022-12-29T14:58:48;10.50;99.90
12893;DHT22;6514;48.606;9.222;2022-12-29T15:01:24;10.40;99.90
12893;DHT22;6514;48.606;9.222;2022-12-29T15:03:56;10.30;99.90
12893;DHT22;6514;48.606;9.222;2022-12-29T15:06:27;10.20;99.90
12893;DHT22;6514;48.606;9.222;2022-12-29T15:09:00;10.10;99.90
12893;DHT22;6514;48.606;9.222;2022-12-29T15:11:42;10.00;99.90
12893;DHT22;6514;48.606;9.222;2022-12-29T15:14:31;9.90;99.90
12893;DHT22;6514;48.606;9.222;2022-12-29T15:16:59;9.80;99.90
12893;DHT22;6514;48.606;9.222;2022-12-29T15:19:28;9.80;99.90
12893;DHT22;6514;48.606;9.222;2022-12-29T15:21:55;9.70;99.90
12893;DHT22;6514;48.606;9.222;2022-12-29T15:24:24;9.70;99.90
12893;DHT22;6514;48.606;9.222;2022-12-29T15:26:53;9.70;99.90
12893;DHT22;6514;48.606;9.222;2022-12-29T15:29:32;9.60;99.90
12893;DHT22;6514;48.606;9.222;2022-12-29T15:32:10;9.60;99.90
12893;DHT22;6514;48.606;9.222;2022-12-29T15:34:39;9.40;99.90
12893;DHT22;6514;48.606;9.222;2022-12-29T15:37:07;9.30;99.90
12893;DHT22;6514;48.606;9.222;2022-12-29T15:39:34;9.20;99.90
12893;DHT22;6514;48.606;9.222;2022-12-29T15:42:05;9.20;99.90
12893;DHT22;6514;48.606;9.222;2022-12-29T15:44:37;9.10;99.90
12893;DHT22;6514;48.606;9.222;2022-12-29T15:47:05;9.00;99.90
12893;DHT22;6514;48.606;9.222;2022-12-29T15:49:33;9.00;99.90
12893;DHT22;6514;48.606;9.222;2022-12-29T15:52:06;9.00;99.90
12893;DHT22;6514;48.606;9.222;2022-12-29T15:54:34;9.00;99.90
12893;DHT22;6514;48.606;9.222;2022-12-29T15:57:01;9.00;99.90
12893;DHT22;6514;48.606;9.222;2022-12-29T15:59:30;9.00;99.90
12893;DHT22;6514;48.606;9.222;2022-12-29T16:02:00;8.90;99.90
12893;DHT22;6514;48.606;9.222;2022-12-29T16:04:30;8.90;99.90
12893;DHT22;6514;48.606;9.222;2022-12-29T16:06:58;8.80;99.90
12893;DHT22;6514;48.606;9.222;2022-12-29T16:09:31;8.90;99.90
12893;DHT22;6514;48.606;9.222;2022-12-29T16:12:00;8.90;99.90
12893;DHT22;6514;48.606;9.222;2022-12-29T16:14:32;8.90;99.90
12893;DHT22;6514;48.606;9.222;2022-12-29T16:17:02;8.90;99.90
12893;DHT22;6514;48.606;9.222;2022-12-29T16:19:34;9.00;99.90
12893;DHT22;6514;48.606;9.222;2022-12-29T16:22:03;9.00;99.90
12893;DHT22;6514;48.606;9.222;2022-12-29T16:24:38;9.10;99.90
12893;DHT22;6514;48.606;9.222;2022-12-29T16:27:08;9.10;99.90
12893;DHT22;6514;48.606;9.222;2022-12-29T16:29:36;9.00;99.90
12893;DHT22;6514;48.606;9.222;2022-12-29T16:32:23;8.90;99.90
12893;DHT22;6514;48.606;9.222;2022-12-29T16:35:15;8.90;99.90